Apple Valley, Idaho
Current Conditions -  °F | °C
As of 1:31 AM on Saturday 20 Dec 2014 (Local Time) from KONO Reporting Station
Haze Haze  
Wind Chill: 34°   Ceiling: 200
Heat Index: 34°   Visibility: 1.5mi
Dew Point: 32°   Wind: 0mph
Humidity: 92%   Direction: NA
Pressure: 30.09"   Gusts: NA
Location:  43.8067°N, 116.922°W
Report Text: KONO 200831Z AUTO 00000KT 1 1/2SM BR BKN002 OVC008 01/00 A3009 RMK AO2 T00110000
Loading
Personal Weather Stations






























Interactive Weather Map New forecast layout! Learn more

10-Day Weather Forecast

Advertisements
Track Severe Weather on mobile